This is the latest recevied weather packets stored in our database for station/object KADF. If no packets are shown the sender has not sent any weather packets the latest 1 day(s).
| Time | Temp. | Humidity | Pressure | Rain* | Wind** | Luminosity | Snow |
|---|---|---|---|---|---|---|---|
| 1778087609 | 11.67° C | 87% | 1015.6 hPa | - | - | - | - |
| 1778083530 | 11.67° C | 87% | 1015.6 hPa | - | - | - | - |
| 1778082812 | 11.67° C | 87% | 1015.2 hPa | - | - | - | - |
| 1778080407 | 10.56° C | 100% | 1015.2 hPa | - | - | - | - |
| 1778079808 | 10.56° C | 100% | 1015.2 hPa | - | - | - | - |
| 1778078607 | 11.67° C | 93% | 1014.6 hPa | - | - | - | - |
| 1778076804 | 11.67° C | 93% | 1014.6 hPa | - | - | - | - |
| 1778075605 | 11.67° C | 93% | 1014.2 hPa | - | - | - | - |
| 1778072607 | 11.67° C | 93% | 1013.9 hPa | - | - | - | - |
| 1778072004 | 11.67° C | 100% | 1012.2 hPa | - | - | - | - |
| 1778071406 | 11.67° C | 100% | 1012.2 hPa | - | - | - | - |
| 1778069605 | 11.67° C | 100% | 1012.2 hPa | - | - | - | - |
| 1778067203 | 12.78° C | 93% | 1011.5 hPa | - | - | - | - |
| 1778066608 | 12.78° C | 93% | 1011.5 hPa | - | - | - | - |
| 1778066007 | 12.78° C | 93% | 1011.5 hPa | - | - | - | - |
| 1778065404 | 12.78° C | 93% | 1011.2 hPa | - | - | - | - |
| 1778064207 | 15° C | 93% | 1010.2 hPa | - | - | - | - |
| 1778063007 | 15° C | 93% | 1010.2 hPa | - | - | - | - |
| 1778062405 | 15° C | 93% | 1010.2 hPa | - | - | - | - |
| 1778059405 | - | - | 1013.2 hPa | - | - | - | - |
| 1778058208 | 20° C | 82% | 1008.8 hPa | - | - | - | - |
| 1778057010 | 22.78° C | 73% | 1008.1 hPa | - | - | - | - |
| 1778055804 | - | - | 1011.9 hPa | - | - | - | - |
| 1778055203 | - | - | 1011.9 hPa | - | - | - | - |
| 1778054002 | 23.89° C | 94% | 1011.2 hPa | - | - | - | - |
* Rain since midnight (hover to see other rain measurements)
** Current wind speed in m/s (hover to see current wind gust speed)